sensor_id;sensor_type;location;lat;lon;timestamp;pressure;altitude;pressure_sealevel;temperature
15626;BMP180;7912;51.376;6.126;2022-08-18T00:00:20;100956.00;;;22.10
15626;BMP180;7912;51.376;6.126;2022-08-18T00:02:48;100950.00;;;22.20
15626;BMP180;7912;51.376;6.126;2022-08-18T00:05:36;100948.00;;;22.20
15626;BMP180;7912;51.376;6.126;2022-08-18T00:08:05;100938.00;;;22.20
15626;BMP180;7912;51.376;6.126;2022-08-18T00:10:33;100940.00;;;22.20
15626;BMP180;7912;51.376;6.126;2022-08-18T00:13:00;100946.00;;;22.20
15626;BMP180;7912;51.376;6.126;2022-08-18T00:15:27;100942.00;;;22.30
15626;BMP180;7912;51.376;6.126;2022-08-18T00:17:55;100936.00;;;22.30
15626;BMP180;7912;51.376;6.126;2022-08-18T00:20:24;100941.00;;;22.30
15626;BMP180;7912;51.376;6.126;2022-08-18T00:22:52;100927.00;;;22.30
15626;BMP180;7912;51.376;6.126;2022-08-18T00:25:22;100942.00;;;22.30
15626;BMP180;7912;51.376;6.126;2022-08-18T00:27:49;100928.00;;;22.40
15626;BMP180;7912;51.376;6.126;2022-08-18T00:30:19;100942.00;;;22.30
15626;BMP180;7912;51.376;6.126;2022-08-18T00:32:52;100936.00;;;22.40
15626;BMP180;7912;51.376;6.126;2022-08-18T00:35:35;100946.00;;;22.40
15626;BMP180;7912;51.376;6.126;2022-08-18T00:38:06;100950.00;;;22.40
15626;BMP180;7912;51.376;6.126;2022-08-18T00:40:51;100956.00;;;22.50
15626;BMP180;7912;51.376;6.126;2022-08-18T00:43:43;100967.00;;;22.50
15626;BMP180;7912;51.376;6.126;2022-08-18T00:46:19;100962.00;;;22.50
15626;BMP180;7912;51.376;6.126;2022-08-18T00:48:47;100958.00;;;22.50
15626;BMP180;7912;51.376;6.126;2022-08-18T00:54:05;100953.00;;;22.60
15626;BMP180;7912;51.376;6.126;2022-08-18T00:56:44;100961.00;;;22.60
15626;BMP180;7912;51.376;6.126;2022-08-18T00:59:45;100947.00;;;22.60
15626;BMP180;7912;51.376;6.126;2022-08-18T01:02:31;100944.00;;;22.60
15626;BMP180;7912;51.376;6.126;2022-08-18T01:05:28;100940.00;;;22.60
15626;BMP180;7912;51.376;6.126;2022-08-18T01:07:56;100950.00;;;22.70
15626;BMP180;7912;51.376;6.126;2022-08-18T01:10:24;100951.00;;;22.70
15626;BMP180;7912;51.376;6.126;2022-08-18T01:12:55;100946.00;;;22.70
15626;BMP180;7912;51.376;6.126;2022-08-18T01:15:26;100950.00;;;22.80
15626;BMP180;7912;51.376;6.126;2022-08-18T01:18:05;100939.00;;;22.80
15626;BMP180;7912;51.376;6.126;2022-08-18T01:21:18;100939.00;;;22.80
15626;BMP180;7912;51.376;6.126;2022-08-18T01:24:09;100940.00;;;22.80
15626;BMP180;7912;51.376;6.126;2022-08-18T01:26:41;100947.00;;;22.90
15626;BMP180;7912;51.376;6.126;2022-08-18T01:29:12;100954.00;;;22.90
15626;BMP180;7912;51.376;6.126;2022-08-18T01:31:50;100948.00;;;22.90
15626;BMP180;7912;51.376;6.126;2022-08-18T01:34:24;100949.00;;;22.90
15626;BMP180;7912;51.376;6.126;2022-08-18T01:36:53;100944.00;;;22.90
15626;BMP180;7912;51.376;6.126;2022-08-18T01:39:22;100941.00;;;22.90
15626;BMP180;7912;51.376;6.126;2022-08-18T01:42:13;100960.00;;;23.00
15626;BMP180;7912;51.376;6.126;2022-08-18T01:44:47;100964.00;;;23.00
15626;BMP180;7912;51.376;6.126;2022-08-18T01:47:14;100972.00;;;23.00
15626;BMP180;7912;51.376;6.126;2022-08-18T01:49:44;100971.00;;;23.00
15626;BMP180;7912;51.376;6.126;2022-08-18T01:52:20;100969.00;;;22.90
15626;BMP180;7912;51.376;6.126;2022-08-18T01:54:49;100967.00;;;23.00
15626;BMP180;7912;51.376;6.126;2022-08-18T01:57:18;100970.00;;;23.00
15626;BMP180;7912;51.376;6.126;2022-08-18T01:59:46;100970.00;;;23.00
15626;BMP180;7912;51.376;6.126;2022-08-18T02:02:21;100956.00;;;23.00
15626;BMP180;7912;51.376;6.126;2022-08-18T02:04:54;100974.00;;;23.00
15626;BMP180;7912;51.376;6.126;2022-08-18T02:07:22;100963.00;;;23.10
15626;BMP180;7912;51.376;6.126;2022-08-18T02:10:00;100970.00;;;23.00
15626;BMP180;7912;51.376;6.126;2022-08-18T02:12:28;100957.00;;;23.10
15626;BMP180;7912;51.376;6.126;2022-08-18T02:14:55;100948.00;;;23.00
15626;BMP180;7912;51.376;6.126;2022-08-18T02:17:22;100959.00;;;23.10
15626;BMP180;7912;51.376;6.126;2022-08-18T02:19:50;100962.00;;;23.10
15626;BMP180;7912;51.376;6.126;2022-08-18T02:22:19;100962.00;;;23.10
15626;BMP180;7912;51.376;6.126;2022-08-18T02:24:47;100963.00;;;23.10
15626;BMP180;7912;51.376;6.126;2022-08-18T02:27:15;100951.00;;;23.10
15626;BMP180;7912;51.376;6.126;2022-08-18T02:29:42;100954.00;;;23.10
15626;BMP180;7912;51.376;6.126;2022-08-18T02:32:10;100956.00;;;23.10
15626;BMP180;7912;51.376;6.126;2022-08-18T02:34:37;100955.00;;;23.10
15626;BMP180;7912;51.376;6.126;2022-08-18T02:37:04;100958.00;;;23.10
15626;BMP180;7912;51.376;6.126;2022-08-18T02:39:34;100965.00;;;23.20
15626;BMP180;7912;51.376;6.126;2022-08-18T02:42:05;100975.00;;;23.20
15626;BMP180;7912;51.376;6.126;2022-08-18T02:44:34;100973.00;;;23.20
15626;BMP180;7912;51.376;6.126;2022-08-18T02:47:02;100956.00;;;23.20
15626;BMP180;7912;51.376;6.126;2022-08-18T02:49:29;100953.00;;;23.20
15626;BMP180;7912;51.376;6.126;2022-08-18T02:51:56;100975.00;;;23.20
15626;BMP180;7912;51.376;6.126;2022-08-18T02:54:24;100967.00;;;23.20
15626;BMP180;7912;51.376;6.126;2022-08-18T02:56:52;100968.00;;;23.20
15626;BMP180;7912;51.376;6.126;2022-08-18T02:59:25;100959.00;;;23.20
15626;BMP180;7912;51.376;6.126;2022-08-18T03:01:57;100949.00;;;23.30
15626;BMP180;7912;51.376;6.126;2022-08-18T03:04:27;100963.00;;;23.30
15626;BMP180;7912;51.376;6.126;2022-08-18T03:07:02;100957.00;;;23.20
15626;BMP180;7912;51.376;6.126;2022-08-18T03:09:31;100957.00;;;23.30
15626;BMP180;7912;51.376;6.126;2022-08-18T03:12:00;100933.00;;;23.30
15626;BMP180;7912;51.376;6.126;2022-08-18T03:14:28;100947.00;;;23.30
15626;BMP180;7912;51.376;6.126;2022-08-18T03:16:56;100948.00;;;23.30
15626;BMP180;7912;51.376;6.126;2022-08-18T03:19:26;100943.00;;;23.30
15626;BMP180;7912;51.376;6.126;2022-08-18T03:21:57;100943.00;;;23.30
15626;BMP180;7912;51.376;6.126;2022-08-18T03:24:30;100944.00;;;23.30
15626;BMP180;7912;51.376;6.126;2022-08-18T03:27:05;100935.00;;;23.30
15626;BMP180;7912;51.376;6.126;2022-08-18T03:29:34;100942.00;;;23.30
15626;BMP180;7912;51.376;6.126;2022-08-18T03:32:04;100936.00;;;23.30
15626;BMP180;7912;51.376;6.126;2022-08-18T03:34:33;100946.00;;;23.30
15626;BMP180;7912;51.376;6.126;2022-08-18T03:37:00;100946.00;;;23.30
15626;BMP180;7912;51.376;6.126;2022-08-18T03:39:28;100940.00;;;23.30
15626;BMP180;7912;51.376;6.126;2022-08-18T03:41:56;100937.00;;;23.30
15626;BMP180;7912;51.376;6.126;2022-08-18T03:44:33;100938.00;;;23.30
15626;BMP180;7912;51.376;6.126;2022-08-18T03:47:09;100942.00;;;23.30
15626;BMP180;7912;51.376;6.126;2022-08-18T03:49:37;100930.00;;;23.20
15626;BMP180;7912;51.376;6.126;2022-08-18T03:52:08;100936.00;;;23.20
15626;BMP180;7912;51.376;6.126;2022-08-18T03:54:36;100929.00;;;23.10
15626;BMP180;7912;51.376;6.126;2022-08-18T03:57:08;100927.00;;;23.10
15626;BMP180;7912;51.376;6.126;2022-08-18T03:59:37;100919.00;;;23.00
15626;BMP180;7912;51.376;6.126;2022-08-18T04:02:07;100922.00;;;23.00
15626;BMP180;7912;51.376;6.126;2022-08-18T04:04:34;100923.00;;;22.90
15626;BMP180;7912;51.376;6.126;2022-08-18T04:07:09;100922.00;;;22.90
15626;BMP180;7912;51.376;6.126;2022-08-18T04:09:38;100918.00;;;22.90
15626;BMP180;7912;51.376;6.126;2022-08-18T04:12:11;100923.00;;;22.90
15626;BMP180;7912;51.376;6.126;2022-08-18T04:14:44;100923.00;;;22.90
15626;BMP180;7912;51.376;6.126;2022-08-18T04:17:19;100917.00;;;22.90
15626;BMP180;7912;51.376;6.126;2022-08-18T04:19:51;100930.00;;;22.90
15626;BMP180;7912;51.376;6.126;2022-08-18T04:22:19;100934.00;;;22.90
15626;BMP180;7912;51.376;6.126;2022-08-18T04:24:47;100935.00;;;22.90
15626;BMP180;7912;51.376;6.126;2022-08-18T04:27:20;100934.00;;;22.90
15626;BMP180;7912;51.376;6.126;2022-08-18T04:29:48;100942.00;;;22.90
15626;BMP180;7912;51.376;6.126;2022-08-18T04:32:16;100946.00;;;23.00
15626;BMP180;7912;51.376;6.126;2022-08-18T04:34:43;100942.00;;;23.00
15626;BMP180;7912;51.376;6.126;2022-08-18T04:37:10;100935.00;;;23.00
15626;BMP180;7912;51.376;6.126;2022-08-18T04:39:40;100942.00;;;23.00
15626;BMP180;7912;51.376;6.126;2022-08-18T04:42:08;100954.00;;;23.00
15626;BMP180;7912;51.376;6.126;2022-08-18T04:44:36;100953.00;;;23.00
15626;BMP180;7912;51.376;6.126;2022-08-18T04:47:06;100963.00;;;23.10
15626;BMP180;7912;51.376;6.126;2022-08-18T04:49:36;100960.00;;;23.10
15626;BMP180;7912;51.376;6.126;2022-08-18T04:52:05;100968.00;;;23.10
15626;BMP180;7912;51.376;6.126;2022-08-18T04:55:08;100965.00;;;23.20
15626;BMP180;7912;51.376;6.126;2022-08-18T04:57:35;100959.00;;;23.20
15626;BMP180;7912;51.376;6.126;2022-08-18T05:00:05;100969.00;;;23.20
15626;BMP180;7912;51.376;6.126;2022-08-18T05:02:34;100969.00;;;23.30
15626;BMP180;7912;51.376;6.126;2022-08-18T05:05:02;100972.00;;;23.30
15626;BMP180;7912;51.376;6.126;2022-08-18T05:07:31;100979.00;;;23.30
15626;BMP180;7912;51.376;6.126;2022-08-18T05:09:59;100966.00;;;23.20
15626;BMP180;7912;51.376;6.126;2022-08-18T05:12:26;100974.00;;;23.30
15626;BMP180;7912;51.376;6.126;2022-08-18T05:14:54;100978.00;;;23.30
15626;BMP180;7912;51.376;6.126;2022-08-18T05:17:24;100980.00;;;23.30
15626;BMP180;7912;51.376;6.126;2022-08-18T05:19:57;100975.00;;;23.30
15626;BMP180;7912;51.376;6.126;2022-08-18T05:22:28;100982.00;;;23.30
15626;BMP180;7912;51.376;6.126;2022-08-18T05:24:58;100985.00;;;23.30
15626;BMP180;7912;51.376;6.126;2022-08-18T05:27:35;100977.00;;;23.30
15626;BMP180;7912;51.376;6.126;2022-08-18T05:30:05;100977.00;;;23.20
15626;BMP180;7912;51.376;6.126;2022-08-18T05:32:52;100990.00;;;23.10
15626;BMP180;7912;51.376;6.126;2022-08-18T05:35:27;100993.00;;;23.00
15626;BMP180;7912;51.376;6.126;2022-08-18T05:41:40;100995.00;;;22.80
15626;BMP180;7912;51.376;6.126;2022-08-18T05:44:14;101005.00;;;22.80
15626;BMP180;7912;51.376;6.126;2022-08-18T05:46:53;100998.00;;;22.90
15626;BMP180;7912;51.376;6.126;2022-08-18T05:49:24;101006.00;;;22.90
15626;BMP180;7912;51.376;6.126;2022-08-18T05:52:06;101003.00;;;22.90
15626;BMP180;7912;51.376;6.126;2022-08-18T05:58:54;101016.00;;;22.90
15626;BMP180;7912;51.376;6.126;2022-08-18T06:01:28;101011.00;;;23.00
15626;BMP180;7912;51.376;6.126;2022-08-18T06:04:29;101013.00;;;23.10
15626;BMP180;7912;51.376;6.126;2022-08-18T06:07:04;101012.00;;;23.20
15626;BMP180;7912;51.376;6.126;2022-08-18T06:09:54;101005.00;;;23.30
15626;BMP180;7912;51.376;6.126;2022-08-18T06:12:46;101007.00;;;23.40
15626;BMP180;7912;51.376;6.126;2022-08-18T06:15:52;101010.00;;;23.50
15626;BMP180;7912;51.376;6.126;2022-08-18T06:41:50;101041.00;;;24.00
15626;BMP180;7912;51.376;6.126;2022-08-18T06:44:25;101044.00;;;24.10
15626;BMP180;7912;51.376;6.126;2022-08-18T06:47:04;101038.00;;;24.10
15626;BMP180;7912;51.376;6.126;2022-08-18T06:49:50;101035.00;;;24.20
15626;BMP180;7912;51.376;6.126;2022-08-18T06:55:36;101040.00;;;24.30
15626;BMP180;7912;51.376;6.126;2022-08-18T07:03:39;101046.00;;;24.50
15626;BMP180;7912;51.376;6.126;2022-08-18T07:06:30;101046.00;;;24.50
15626;BMP180;7912;51.376;6.126;2022-08-18T07:09:21;101040.00;;;24.50
15626;BMP180;7912;51.376;6.126;2022-08-18T07:12:08;101038.00;;;24.70
15626;BMP180;7912;51.376;6.126;2022-08-18T07:14:51;101038.00;;;24.90
15626;BMP180;7912;51.376;6.126;2022-08-18T07:17:30;101039.00;;;25.10
15626;BMP180;7912;51.376;6.126;2022-08-18T07:20:22;101037.00;;;25.40
15626;BMP180;7912;51.376;6.126;2022-08-18T07:22:59;101032.00;;;25.50
15626;BMP180;7912;51.376;6.126;2022-08-18T07:25:48;101039.00;;;25.60
15626;BMP180;7912;51.376;6.126;2022-08-18T07:28:32;101046.00;;;25.70
15626;BMP180;7912;51.376;6.126;2022-08-18T07:34:09;101037.00;;;26.00
15626;BMP180;7912;51.376;6.126;2022-08-18T07:37:04;101035.00;;;26.30
15626;BMP180;7912;51.376;6.126;2022-08-18T07:39:46;101036.00;;;26.50
15626;BMP180;7912;51.376;6.126;2022-08-18T07:42:31;101047.00;;;26.70
15626;BMP180;7912;51.376;6.126;2022-08-18T07:45:43;101047.00;;;26.80
15626;BMP180;7912;51.376;6.126;2022-08-18T07:54:02;101024.00;;;27.10
15626;BMP180;7912;51.376;6.126;2022-08-18T07:59:39;101027.00;;;27.30
15626;BMP180;7912;51.376;6.126;2022-08-18T08:02:57;101032.00;;;27.40
15626;BMP180;7912;51.376;6.126;2022-08-18T08:05:48;101042.00;;;27.10
15626;BMP180;7912;51.376;6.126;2022-08-18T08:08:48;101046.00;;;26.90
15626;BMP180;7912;51.376;6.126;2022-08-18T08:12:02;101047.00;;;26.80
15626;BMP180;7912;51.376;6.126;2022-08-18T08:14:45;101037.00;;;26.90
15626;BMP180;7912;51.376;6.126;2022-08-18T08:17:47;101039.00;;;27.00
15626;BMP180;7912;51.376;6.126;2022-08-18T08:20:39;101042.00;;;27.10
15626;BMP180;7912;51.376;6.126;2022-08-18T08:23:28;101045.00;;;27.20
15626;BMP180;7912;51.376;6.126;2022-08-18T08:32:32;101054.00;;;27.30
15626;BMP180;7912;51.376;6.126;2022-08-18T08:35:45;101056.00;;;27.20
15626;BMP180;7912;51.376;6.126;2022-08-18T08:38:46;101057.00;;;27.30
15626;BMP180;7912;51.376;6.126;2022-08-18T08:44:10;101060.00;;;27.50
15626;BMP180;7912;51.376;6.126;2022-08-18T08:47:04;101058.00;;;27.50
15626;BMP180;7912;51.376;6.126;2022-08-18T08:53:10;101069.00;;;27.50
15626;BMP180;7912;51.376;6.126;2022-08-18T08:55:53;101068.00;;;27.70
15626;BMP180;7912;51.376;6.126;2022-08-18T08:59:17;101069.00;;;28.00
15626;BMP180;7912;51.376;6.126;2022-08-18T09:05:24;101069.00;;;29.00
15626;BMP180;7912;51.376;6.126;2022-08-18T09:23:07;101068.00;;;30.20
15626;BMP180;7912;51.376;6.126;2022-08-18T09:36:48;101059.00;;;30.00
15626;BMP180;7912;51.376;6.126;2022-08-18T09:39:37;101062.00;;;30.10
15626;BMP180;7912;51.376;6.126;2022-08-18T09:42:37;101073.00;;;30.10
15626;BMP180;7912;51.376;6.126;2022-08-18T09:48:25;101080.00;;;29.70
15626;BMP180;7912;51.376;6.126;2022-08-18T10:14:22;101070.00;;;28.60
15626;BMP180;7912;51.376;6.126;2022-08-18T10:17:09;101066.00;;;28.60
15626;BMP180;7912;51.376;6.126;2022-08-18T10:22:53;101066.00;;;28.80
15626;BMP180;7912;51.376;6.126;2022-08-18T10:27:58;101056.00;;;29.30
15626;BMP180;7912;51.376;6.126;2022-08-18T10:34:07;101043.00;;;30.00
15626;BMP180;7912;51.376;6.126;2022-08-18T10:36:56;101039.00;;;30.80
15626;BMP180;7912;51.376;6.126;2022-08-18T10:48:31;101043.00;;;31.60
15626;BMP180;7912;51.376;6.126;2022-08-18T10:51:19;101054.00;;;31.40
15626;BMP180;7912;51.376;6.126;2022-08-18T11:01:06;101047.00;;;31.80
15626;BMP180;7912;51.376;6.126;2022-08-18T11:06:47;101053.00;;;32.10
15626;BMP180;7912;51.376;6.126;2022-08-18T11:09:28;101039.00;;;32.30
15626;BMP180;7912;51.376;6.126;2022-08-18T11:11:59;101033.00;;;32.30
15626;BMP180;7912;51.376;6.126;2022-08-18T11:14:59;101018.00;;;32.50
15626;BMP180;7912;51.376;6.126;2022-08-18T11:18:06;101021.00;;;32.70
15626;BMP180;7912;51.376;6.126;2022-08-18T11:20:37;101016.00;;;32.90
15626;BMP180;7912;51.376;6.126;2022-08-18T11:23:16;101004.00;;;33.10
15626;BMP180;7912;51.376;6.126;2022-08-18T11:25:44;101001.00;;;33.40
15626;BMP180;7912;51.376;6.126;2022-08-18T11:28:28;100985.00;;;34.10
15626;BMP180;7912;51.376;6.126;2022-08-18T11:30:58;100994.00;;;35.00
15626;BMP180;7912;51.376;6.126;2022-08-18T11:33:26;101003.00;;;35.50
15626;BMP180;7912;51.376;6.126;2022-08-18T11:35:58;100988.00;;;35.60
15626;BMP180;7912;51.376;6.126;2022-08-18T11:38:28;100997.00;;;35.70
15626;BMP180;7912;51.376;6.126;2022-08-18T11:41:23;100994.00;;;36.00
15626;BMP180;7912;51.376;6.126;2022-08-18T11:44:19;100990.00;;;36.10
15626;BMP180;7912;51.376;6.126;2022-08-18T11:46:53;100978.00;;;36.40
15626;BMP180;7912;51.376;6.126;2022-08-18T11:49:32;100977.00;;;36.30
15626;BMP180;7912;51.376;6.126;2022-08-18T11:52:26;100986.00;;;36.40
15626;BMP180;7912;51.376;6.126;2022-08-18T11:55:05;100993.00;;;36.10
15626;BMP180;7912;51.376;6.126;2022-08-18T11:57:52;100989.00;;;36.20
15626;BMP180;7912;51.376;6.126;2022-08-18T12:01:09;100989.00;;;36.10
15626;BMP180;7912;51.376;6.126;2022-08-18T12:03:41;100995.00;;;35.80
15626;BMP180;7912;51.376;6.126;2022-08-18T12:06:29;100994.00;;;35.60
15626;BMP180;7912;51.376;6.126;2022-08-18T12:09:01;101007.00;;;35.40
15626;BMP180;7912;51.376;6.126;2022-08-18T12:11:57;101000.00;;;35.40
15626;BMP180;7912;51.376;6.126;2022-08-18T12:14:33;100990.00;;;35.70
15626;BMP180;7912;51.376;6.126;2022-08-18T12:17:18;100984.00;;;35.80
15626;BMP180;7912;51.376;6.126;2022-08-18T12:19:46;100983.00;;;35.90
15626;BMP180;7912;51.376;6.126;2022-08-18T12:22:22;100983.00;;;35.70
15626;BMP180;7912;51.376;6.126;2022-08-18T12:24:53;100984.00;;;35.60
15626;BMP180;7912;51.376;6.126;2022-08-18T12:27:25;100983.00;;;35.60
15626;BMP180;7912;51.376;6.126;2022-08-18T12:29:59;100985.00;;;35.50
15626;BMP180;7912;51.376;6.126;2022-08-18T12:32:31;100991.00;;;35.40
15626;BMP180;7912;51.376;6.126;2022-08-18T12:35:16;101003.00;;;35.20
15626;BMP180;7912;51.376;6.126;2022-08-18T12:37:48;101017.00;;;35.00
15626;BMP180;7912;51.376;6.126;2022-08-18T12:40:36;101026.00;;;34.70
15626;BMP180;7912;51.376;6.126;2022-08-18T12:43:04;101029.00;;;34.30
15626;BMP180;7912;51.376;6.126;2022-08-18T12:45:33;101026.00;;;34.00
15626;BMP180;7912;51.376;6.126;2022-08-18T12:48:04;101038.00;;;33.90
15626;BMP180;7912;51.376;6.126;2022-08-18T12:50:35;101042.00;;;33.70
15626;BMP180;7912;51.376;6.126;2022-08-18T12:53:24;101043.00;;;33.40
15626;BMP180;7912;51.376;6.126;2022-08-18T12:56:07;101052.00;;;33.10
15626;BMP180;7912;51.376;6.126;2022-08-18T12:58:45;101055.00;;;32.90
15626;BMP180;7912;51.376;6.126;2022-08-18T13:01:13;101050.00;;;32.80
15626;BMP180;7912;51.376;6.126;2022-08-18T13:03:45;101058.00;;;32.70
15626;BMP180;7912;51.376;6.126;2022-08-18T13:06:38;101052.00;;;32.50
15626;BMP180;7912;51.376;6.126;2022-08-18T13:09:21;101055.00;;;32.40
15626;BMP180;7912;51.376;6.126;2022-08-18T13:12:09;101058.00;;;32.30
15626;BMP180;7912;51.376;6.126;2022-08-18T13:14:42;101062.00;;;32.30
15626;BMP180;7912;51.376;6.126;2022-08-18T13:17:11;101046.00;;;32.20
15626;BMP180;7912;51.376;6.126;2022-08-18T13:20:01;101052.00;;;32.10
15626;BMP180;7912;51.376;6.126;2022-08-18T13:22:30;101037.00;;;32.00
15626;BMP180;7912;51.376;6.126;2022-08-18T13:25:03;101036.00;;;32.00
15626;BMP180;7912;51.376;6.126;2022-08-18T13:27:35;101023.00;;;31.90
15626;BMP180;7912;51.376;6.126;2022-08-18T13:30:14;101023.00;;;31.90
15626;BMP180;7912;51.376;6.126;2022-08-18T13:32:59;101022.00;;;32.00
15626;BMP180;7912;51.376;6.126;2022-08-18T13:35:37;101016.00;;;32.20
15626;BMP180;7912;51.376;6.126;2022-08-18T13:38:16;101009.00;;;32.50
15626;BMP180;7912;51.376;6.126;2022-08-18T13:40:55;101006.00;;;32.80
15626;BMP180;7912;51.376;6.126;2022-08-18T13:43:31;101005.00;;;33.10
15626;BMP180;7912;51.376;6.126;2022-08-18T13:46:01;100996.00;;;33.70
15626;BMP180;7912;51.376;6.126;2022-08-18T13:48:32;100988.00;;;34.60
15626;BMP180;7912;51.376;6.126;2022-08-18T13:51:01;100981.00;;;35.60
15626;BMP180;7912;51.376;6.126;2022-08-18T13:53:30;100977.00;;;36.50
15626;BMP180;7912;51.376;6.126;2022-08-18T13:55:58;100984.00;;;37.00
15626;BMP180;7912;51.376;6.126;2022-08-18T13:58:27;100980.00;;;37.40
15626;BMP180;7912;51.376;6.126;2022-08-18T14:01:00;100979.00;;;37.90
15626;BMP180;7912;51.376;6.126;2022-08-18T14:03:48;100976.00;;;38.30
15626;BMP180;7912;51.376;6.126;2022-08-18T14:06:16;100966.00;;;38.50
15626;BMP180;7912;51.376;6.126;2022-08-18T14:08:51;100947.00;;;38.80
15626;BMP180;7912;51.376;6.126;2022-08-18T14:11:24;100965.00;;;38.90
15626;BMP180;7912;51.376;6.126;2022-08-18T14:13:59;100961.00;;;38.70
15626;BMP180;7912;51.376;6.126;2022-08-18T14:16:27;100969.00;;;38.50
15626;BMP180;7912;51.376;6.126;2022-08-18T14:18:56;100958.00;;;38.40
15626;BMP180;7912;51.376;6.126;2022-08-18T14:21:49;100954.00;;;38.50
15626;BMP180;7912;51.376;6.126;2022-08-18T14:24:39;100947.00;;;38.80
15626;BMP180;7912;51.376;6.126;2022-08-18T14:27:35;100955.00;;;38.70
15626;BMP180;7912;51.376;6.126;2022-08-18T14:30:08;100961.00;;;38.30
15626;BMP180;7912;51.376;6.126;2022-08-18T14:32:37;100965.00;;;37.70
15626;BMP180;7912;51.376;6.126;2022-08-18T14:35:16;100976.00;;;37.10
15626;BMP180;7912;51.376;6.126;2022-08-18T14:38:02;100979.00;;;36.60
15626;BMP180;7912;51.376;6.126;2022-08-18T14:40:31;100981.00;;;36.50
15626;BMP180;7912;51.376;6.126;2022-08-18T14:43:00;100972.00;;;36.40
15626;BMP180;7912;51.376;6.126;2022-08-18T14:45:32;100973.00;;;36.30
15626;BMP180;7912;51.376;6.126;2022-08-18T14:48:05;100959.00;;;36.40
15626;BMP180;7912;51.376;6.126;2022-08-18T14:50:39;100957.00;;;36.40
15626;BMP180;7912;51.376;6.126;2022-08-18T14:53:17;100964.00;;;36.30
15626;BMP180;7912;51.376;6.126;2022-08-18T14:55:48;100959.00;;;36.20
15626;BMP180;7912;51.376;6.126;2022-08-18T14:58:25;100961.00;;;36.30
15626;BMP180;7912;51.376;6.126;2022-08-18T15:00:56;100962.00;;;36.30
15626;BMP180;7912;51.376;6.126;2022-08-18T15:03:26;100967.00;;;36.40
15626;BMP180;7912;51.376;6.126;2022-08-18T15:06:00;100962.00;;;36.60
15626;BMP180;7912;51.376;6.126;2022-08-18T15:08:33;100950.00;;;37.00
15626;BMP180;7912;51.376;6.126;2022-08-18T15:11:03;100947.00;;;37.60
15626;BMP180;7912;51.376;6.126;2022-08-18T15:13:40;100947.00;;;38.40
15626;BMP180;7912;51.376;6.126;2022-08-18T15:16:13;100950.00;;;39.10
15626;BMP180;7912;51.376;6.126;2022-08-18T15:18:42;100950.00;;;39.70
15626;BMP180;7912;51.376;6.126;2022-08-18T15:21:11;100948.00;;;39.90
15626;BMP180;7912;51.376;6.126;2022-08-18T15:24:06;100941.00;;;39.60
15626;BMP180;7912;51.376;6.126;2022-08-18T15:26:55;100948.00;;;39.00
15626;BMP180;7912;51.376;6.126;2022-08-18T15:29:32;100953.00;;;38.60
15626;BMP180;7912;51.376;6.126;2022-08-18T15:31:59;100955.00;;;38.50
15626;BMP180;7912;51.376;6.126;2022-08-18T15:34:37;100956.00;;;38.40
15626;BMP180;7912;51.376;6.126;2022-08-18T15:37:14;100953.00;;;38.40
15626;BMP180;7912;51.376;6.126;2022-08-18T15:39:47;100957.00;;;38.40
15626;BMP180;7912;51.376;6.126;2022-08-18T15:42:22;100962.00;;;38.30
15626;BMP180;7912;51.376;6.126;2022-08-18T15:44:49;100964.00;;;38.20
15626;BMP180;7912;51.376;6.126;2022-08-18T15:47:20;100963.00;;;38.10
15626;BMP180;7912;51.376;6.126;2022-08-18T15:49:51;100956.00;;;38.40
15626;BMP180;7912;51.376;6.126;2022-08-18T15:52:22;100962.00;;;38.70
15626;BMP180;7912;51.376;6.126;2022-08-18T15:54:52;100958.00;;;38.80
15626;BMP180;7912;51.376;6.126;2022-08-18T15:57:30;100952.00;;;38.60
15626;BMP180;7912;51.376;6.126;2022-08-18T16:00:07;100953.00;;;38.40
15626;BMP180;7912;51.376;6.126;2022-08-18T16:02:39;100956.00;;;38.00
15626;BMP180;7912;51.376;6.126;2022-08-18T16:05:15;100959.00;;;37.60
15626;BMP180;7912;51.376;6.126;2022-08-18T16:07:43;100955.00;;;37.30
15626;BMP180;7912;51.376;6.126;2022-08-18T16:10:15;100959.00;;;37.10
15626;BMP180;7912;51.376;6.126;2022-08-18T16:12:43;100958.00;;;36.80
15626;BMP180;7912;51.376;6.126;2022-08-18T16:15:14;100957.00;;;36.70
15626;BMP180;7912;51.376;6.126;2022-08-18T16:17:50;100949.00;;;36.50
15626;BMP180;7912;51.376;6.126;2022-08-18T16:20:20;100961.00;;;36.50
15626;BMP180;7912;51.376;6.126;2022-08-18T16:22:51;100956.00;;;36.30
15626;BMP180;7912;51.376;6.126;2022-08-18T16:25:20;100961.00;;;36.40
15626;BMP180;7912;51.376;6.126;2022-08-18T16:27:48;100963.00;;;36.30
15626;BMP180;7912;51.376;6.126;2022-08-18T16:30:24;100959.00;;;36.20
15626;BMP180;7912;51.376;6.126;2022-08-18T16:32:52;100960.00;;;36.00
15626;BMP180;7912;51.376;6.126;2022-08-18T16:35:20;100959.00;;;36.10
15626;BMP180;7912;51.376;6.126;2022-08-18T16:37:48;100962.00;;;36.10
15626;BMP180;7912;51.376;6.126;2022-08-18T16:40:18;100967.00;;;36.10
15626;BMP180;7912;51.376;6.126;2022-08-18T16:42:46;100963.00;;;36.10
15626;BMP180;7912;51.376;6.126;2022-08-18T16:45:20;100961.00;;;36.10
15626;BMP180;7912;51.376;6.126;2022-08-18T16:47:47;100965.00;;;36.20
15626;BMP180;7912;51.376;6.126;2022-08-18T16:50:15;100962.00;;;36.10
15626;BMP180;7912;51.376;6.126;2022-08-18T16:52:45;100952.00;;;36.00
15626;BMP180;7912;51.376;6.126;2022-08-18T16:55:13;100954.00;;;35.90
15626;BMP180;7912;51.376;6.126;2022-08-18T16:57:42;100956.00;;;35.80
15626;BMP180;7912;51.376;6.126;2022-08-18T17:00:31;100950.00;;;35.70
15626;BMP180;7912;51.376;6.126;2022-08-18T17:03:25;100950.00;;;35.50
15626;BMP180;7912;51.376;6.126;2022-08-18T17:06:15;100948.00;;;35.10
15626;BMP180;7912;51.376;6.126;2022-08-18T17:08:44;100949.00;;;34.80
15626;BMP180;7912;51.376;6.126;2022-08-18T17:11:17;100947.00;;;34.60
15626;BMP180;7912;51.376;6.126;2022-08-18T17:13:47;100945.00;;;34.40
15626;BMP180;7912;51.376;6.126;2022-08-18T17:16:17;100942.00;;;34.20
15626;BMP180;7912;51.376;6.126;2022-08-18T17:18:47;100931.00;;;34.10
15626;BMP180;7912;51.376;6.126;2022-08-18T17:21:20;100939.00;;;34.00
15626;BMP180;7912;51.376;6.126;2022-08-18T17:23:48;100927.00;;;33.90
15626;BMP180;7912;51.376;6.126;2022-08-18T17:27:08;100924.00;;;33.80
15626;BMP180;7912;51.376;6.126;2022-08-18T17:32:56;100923.00;;;33.60
15626;BMP180;7912;51.376;6.126;2022-08-18T17:35:40;100930.00;;;33.70